createdAt,value
2022-08-31T00:00:36.175Z,14.90
2022-08-31T00:03:23.104Z,14.80
2022-08-31T00:05:52.107Z,14.70
2022-08-31T00:08:22.247Z,14.70
2022-08-31T00:10:51.016Z,14.60
2022-08-31T00:13:20.097Z,14.50
2022-08-31T00:15:49.272Z,14.60
2022-08-31T00:18:18.714Z,14.40
2022-08-31T00:20:48.504Z,14.40
2022-08-31T00:23:19.025Z,14.40
2022-08-31T00:25:50.983Z,14.40
2022-08-31T00:28:21.210Z,14.40
2022-08-31T00:30:51.014Z,14.40
2022-08-31T00:33:20.293Z,14.40
2022-08-31T00:35:49.450Z,14.20
2022-08-31T00:38:18.465Z,14.30
2022-08-31T00:40:48.976Z,14.30
2022-08-31T00:43:36.748Z,14.30
2022-08-31T00:46:05.841Z,14.30
2022-08-31T00:48:35.344Z,14.30
2022-08-31T00:51:04.006Z,14.40
2022-08-31T00:53:32.610Z,14.40
2022-08-31T00:56:03.546Z,14.40
2022-08-31T00:58:33.053Z,14.40
2022-08-31T01:01:02.278Z,14.60
2022-08-31T01:03:30.921Z,14.40
2022-08-31T01:06:00.333Z,14.40
2022-08-31T01:08:31.025Z,14.40
2022-08-31T01:11:02.924Z,14.30
2022-08-31T01:13:32.904Z,14.30
2022-08-31T01:16:06.908Z,14.30
2022-08-31T01:18:36.515Z,14.30
2022-08-31T01:21:18.656Z,14.20
2022-08-31T01:23:49.076Z,14.20
2022-08-31T01:26:20.770Z,14.20
2022-08-31T01:28:50.884Z,14.10
2022-08-31T01:31:24.543Z,14.00
2022-08-31T01:33:53.468Z,14.00
2022-08-31T01:36:22.729Z,14.00
2022-08-31T01:38:54.376Z,13.80
2022-08-31T01:41:23.558Z,13.90
2022-08-31T01:43:54.614Z,13.90
2022-08-31T01:46:23.429Z,13.80
2022-08-31T01:48:53.250Z,13.70
2022-08-31T01:51:23.570Z,13.70
2022-08-31T01:53:55.161Z,13.70
2022-08-31T01:56:26.319Z,13.70
2022-08-31T01:58:55.644Z,13.70
2022-08-31T02:01:50.274Z,13.60
2022-08-31T02:04:20.898Z,13.60
2022-08-31T02:06:52.243Z,13.50
2022-08-31T02:09:24.673Z,13.50
2022-08-31T02:11:54.025Z,13.40
2022-08-31T02:14:23.215Z,13.30
2022-08-31T02:16:52.210Z,13.30
2022-08-31T02:19:21.193Z,13.30
2022-08-31T02:21:49.791Z,13.40
2022-08-31T02:24:18.968Z,13.50
2022-08-31T02:26:53.551Z,13.60
2022-08-31T02:29:22.742Z,13.70
2022-08-31T02:31:51.902Z,13.70
2022-08-31T02:34:21.118Z,13.80
2022-08-31T02:36:50.066Z,13.80
2022-08-31T02:39:18.915Z,14.00
2022-08-31T02:41:49.120Z,13.70
2022-08-31T02:44:19.125Z,13.80
2022-08-31T02:46:49.417Z,13.80
2022-08-31T02:49:56.682Z,13.80
2022-08-31T02:52:25.605Z,13.70
2022-08-31T02:54:54.270Z,13.70
2022-08-31T02:57:24.730Z,13.70
2022-08-31T02:59:54.274Z,13.70
2022-08-31T03:02:24.276Z,13.60
2022-08-31T03:05:02.080Z,13.60
2022-08-31T03:07:31.139Z,13.60
2022-08-31T03:10:00.645Z,13.60
2022-08-31T03:12:31.084Z,13.70
2022-08-31T03:15:00.022Z,13.60
2022-08-31T03:17:29.134Z,13.50
2022-08-31T03:20:04.161Z,13.50
2022-08-31T03:22:34.978Z,13.50
2022-08-31T03:25:06.326Z,13.50
2022-08-31T03:27:37.213Z,13.40
2022-08-31T03:30:07.354Z,13.30
2022-08-31T03:32:37.238Z,13.20
2022-08-31T03:35:07.321Z,13.10
2022-08-31T03:37:36.071Z,13.10
2022-08-31T03:40:05.964Z,13.00
2022-08-31T03:42:37.009Z,13.00
2022-08-31T03:45:07.966Z,12.90
2022-08-31T03:47:42.737Z,12.90
2022-08-31T03:50:16.027Z,13.20
2022-08-31T03:53:00.467Z,12.90
2022-08-31T03:55:29.214Z,12.70
2022-08-31T03:57:59.404Z,12.60
2022-08-31T04:00:28.617Z,12.70
2022-08-31T04:03:03.169Z,12.70
2022-08-31T04:05:34.263Z,12.60
2022-08-31T04:08:22.385Z,12.70
2022-08-31T04:11:45.118Z,12.70
2022-08-31T04:14:34.672Z,12.60
2022-08-31T04:17:21.625Z,12.80
2022-08-31T04:19:57.587Z,12.70
2022-08-31T04:22:42.825Z,12.70
2022-08-31T04:25:22.931Z,12.70
2022-08-31T04:27:54.304Z,12.80
2022-08-31T04:30:25.930Z,13.00
2022-08-31T04:32:55.445Z,13.40
2022-08-31T04:35:24.635Z,14.00
2022-08-31T04:37:53.231Z,14.50
2022-08-31T04:40:25.611Z,14.90
2022-08-31T04:42:55.614Z,15.50
2022-08-31T04:45:28.215Z,16.20
2022-08-31T04:47:56.871Z,16.60
2022-08-31T04:50:25.476Z,17.00
2022-08-31T04:53:08.886Z,17.10
2022-08-31T04:55:41.347Z,17.60
2022-08-31T04:58:13.676Z,17.90
2022-08-31T05:00:45.577Z,18.40
2022-08-31T05:03:25.325Z,18.90
2022-08-31T05:05:57.040Z,19.30
2022-08-31T05:08:26.032Z,19.40
2022-08-31T05:10:54.984Z,19.80
2022-08-31T05:13:24.398Z,19.60
2022-08-31T05:15:55.594Z,20.10
2022-08-31T05:18:26.384Z,20.30
2022-08-31T05:21:11.197Z,20.50
2022-08-31T05:23:40.912Z,20.80
2022-08-31T05:26:10.287Z,20.90
2022-08-31T05:28:39.721Z,20.40
2022-08-31T05:31:10.107Z,19.80
2022-08-31T05:33:45.830Z,18.90
2022-08-31T05:36:16.962Z,17.90
2022-08-31T05:38:45.911Z,17.10
2022-08-31T05:41:16.706Z,16.60
2022-08-31T05:43:45.644Z,16.20
2022-08-31T05:46:17.063Z,16.00
2022-08-31T05:48:49.112Z,15.90
2022-08-31T05:51:20.672Z,15.90
2022-08-31T05:53:49.854Z,16.10
2022-08-31T05:56:21.249Z,16.10
2022-08-31T05:58:51.862Z,16.00
2022-08-31T06:01:24.814Z,16.10
2022-08-31T06:04:05.080Z,16.10
2022-08-31T06:06:34.629Z,16.20
2022-08-31T06:09:03.468Z,16.20
2022-08-31T06:11:34.897Z,16.20
2022-08-31T06:14:05.673Z,16.10
2022-08-31T06:16:36.589Z,16.00
2022-08-31T06:19:07.185Z,16.00
2022-08-31T06:21:50.472Z,16.20
2022-08-31T06:24:24.102Z,16.10
2022-08-31T06:26:58.356Z,16.10
2022-08-31T06:29:34.501Z,16.10
2022-08-31T06:32:08.096Z,16.30
2022-08-31T06:34:41.310Z,16.40
2022-08-31T06:37:19.030Z,16.40
2022-08-31T06:40:11.508Z,16.60
2022-08-31T06:42:58.920Z,16.60
2022-08-31T06:45:49.286Z,17.80
2022-08-31T06:48:54.708Z,16.80
2022-08-31T06:51:23.886Z,16.90
2022-08-31T06:53:53.279Z,17.00
2022-08-31T06:56:41.234Z,17.20
2022-08-31T06:59:25.323Z,17.20
2022-08-31T07:02:13.002Z,17.40
2022-08-31T07:04:43.102Z,17.50
2022-08-31T07:07:12.192Z,17.60
2022-08-31T07:09:44.300Z,17.70
2022-08-31T07:12:13.667Z,17.70
2022-08-31T07:14:42.362Z,17.90
2022-08-31T07:17:23.984Z,18.00
2022-08-31T07:19:54.668Z,18.20
2022-08-31T07:22:24.071Z,18.30
2022-08-31T07:25:01.042Z,18.40
2022-08-31T07:27:30.205Z,18.60
2022-08-31T07:30:01.393Z,18.60
2022-08-31T07:32:34.947Z,18.70
2022-08-31T07:35:06.517Z,18.80
2022-08-31T07:38:03.082Z,18.90
2022-08-31T07:40:50.840Z,19.00
2022-08-31T07:43:22.568Z,19.20
2022-08-31T07:45:51.976Z,19.30
2022-08-31T07:48:27.381Z,19.40
2022-08-31T07:51:07.415Z,19.50
2022-08-31T07:53:47.651Z,19.50
2022-08-31T07:56:43.151Z,19.70
2022-08-31T07:59:15.114Z,19.80
2022-08-31T08:01:45.819Z,19.70
2022-08-31T08:04:25.100Z,19.80
2022-08-31T08:07:24.428Z,19.70
2022-08-31T08:10:30.092Z,19.80
2022-08-31T08:13:19.309Z,19.80
2022-08-31T08:16:11.105Z,19.90
2022-08-31T08:18:57.366Z,19.90
2022-08-31T08:21:30.098Z,19.90
2022-08-31T08:24:00.653Z,19.90
2022-08-31T08:26:54.165Z,20.10
2022-08-31T08:29:58.927Z,20.30
2022-08-31T08:32:31.889Z,20.50
2022-08-31T08:35:01.097Z,20.70
2022-08-31T08:37:47.805Z,20.80
2022-08-31T08:40:32.175Z,20.80
2022-08-31T08:43:02.405Z,20.90
2022-08-31T08:45:31.869Z,20.70
2022-08-31T08:48:02.078Z,20.70
2022-08-31T08:50:32.849Z,20.60
2022-08-31T08:53:03.830Z,20.60
2022-08-31T08:55:39.459Z,20.30
2022-08-31T08:58:10.472Z,20.40
2022-08-31T09:00:46.833Z,20.70
2022-08-31T09:03:25.686Z,20.80
2022-08-31T09:06:11.081Z,21.10
2022-08-31T09:09:20.356Z,21.30
2022-08-31T09:12:14.816Z,21.20
2022-08-31T09:14:59.053Z,21.20
2022-08-31T09:17:49.482Z,21.20
2022-08-31T09:20:18.853Z,21.50
2022-08-31T09:22:51.938Z,21.80
2022-08-31T09:25:29.793Z,22.00
2022-08-31T09:28:17.283Z,22.10
2022-08-31T09:30:52.611Z,22.00
2022-08-31T09:33:23.964Z,21.90
2022-08-31T09:35:56.098Z,21.90
2022-08-31T09:38:30.539Z,22.00
2022-08-31T09:41:02.094Z,22.30
2022-08-31T09:43:37.551Z,21.80
2022-08-31T09:46:10.250Z,21.50
2022-08-31T09:48:44.160Z,21.00
2022-08-31T09:51:23.919Z,20.70
2022-08-31T09:54:11.006Z,20.60
2022-08-31T09:56:55.045Z,20.50
2022-08-31T09:59:40.253Z,20.50
2022-08-31T10:02:12.990Z,20.60
2022-08-31T10:04:51.217Z,20.70
2022-08-31T10:07:37.741Z,21.10
2022-08-31T10:10:28.161Z,21.50
2022-08-31T10:13:03.718Z,22.10
2022-08-31T10:15:41.282Z,22.30
2022-08-31T10:18:15.353Z,22.20
2022-08-31T10:20:48.873Z,22.80
2022-08-31T10:23:27.088Z,23.00
2022-08-31T10:26:02.358Z,22.80
2022-08-31T10:28:36.719Z,23.10
2022-08-31T10:31:13.639Z,23.10
2022-08-31T10:34:04.906Z,23.10
2022-08-31T10:36:38.988Z,23.20
2022-08-31T10:39:17.754Z,23.40
2022-08-31T10:41:51.202Z,23.80
2022-08-31T10:44:26.853Z,24.00
2022-08-31T10:47:05.525Z,23.80
2022-08-31T10:49:35.967Z,23.70
2022-08-31T10:52:17.410Z,23.70
2022-08-31T10:54:54.498Z,23.50
2022-08-31T10:57:32.101Z,22.80
2022-08-31T11:00:07.452Z,22.60
2022-08-31T11:02:46.297Z,22.50
2022-08-31T11:05:30.315Z,22.40
2022-08-31T11:08:12.325Z,22.40
2022-08-31T11:10:50.190Z,22.60
2022-08-31T11:13:38.539Z,22.60
2022-08-31T11:16:17.837Z,22.40
2022-08-31T11:19:16.174Z,22.50
2022-08-31T11:21:58.641Z,22.40
2022-08-31T11:25:04.682Z,22.30
2022-08-31T11:27:39.696Z,22.30
2022-08-31T11:30:16.430Z,22.40
2022-08-31T11:32:50.862Z,22.30
2022-08-31T11:36:05.635Z,22.10
2022-08-31T11:38:54.575Z,21.90
2022-08-31T11:41:41.298Z,21.80
2022-08-31T11:44:33.099Z,21.90
2022-08-31T11:47:06.832Z,22.10
2022-08-31T11:49:43.792Z,22.40
2022-08-31T11:52:48.472Z,22.60
2022-08-31T11:55:27.073Z,23.20
2022-08-31T11:58:20.669Z,23.90
2022-08-31T12:00:54.107Z,24.40
2022-08-31T12:03:50.673Z,24.40
2022-08-31T12:07:12.144Z,24.10
2022-08-31T12:10:04.657Z,23.90
2022-08-31T12:12:51.919Z,23.40
2022-08-31T12:15:28.502Z,23.10
2022-08-31T12:18:14.155Z,22.80
2022-08-31T12:21:16.296Z,22.70
2022-08-31T12:23:55.719Z,22.70
2022-08-31T12:26:52.484Z,22.60
2022-08-31T12:29:32.590Z,22.60
2022-08-31T12:32:20.299Z,22.80
2022-08-31T12:34:52.602Z,22.80
2022-08-31T12:37:27.177Z,22.70
2022-08-31T12:40:12.107Z,23.00
2022-08-31T12:42:53.130Z,23.50
2022-08-31T12:45:42.389Z,23.80
2022-08-31T12:48:25.693Z,24.20
2022-08-31T12:51:01.129Z,24.00
2022-08-31T12:54:01.305Z,24.10
2022-08-31T12:56:39.061Z,24.10
2022-08-31T12:59:23.092Z,24.50
2022-08-31T13:01:52.685Z,24.60
2022-08-31T13:04:22.745Z,24.20
2022-08-31T13:06:51.344Z,24.00
2022-08-31T13:09:28.566Z,23.80
2022-08-31T13:11:59.949Z,23.70
2022-08-31T13:14:31.914Z,23.70
2022-08-31T13:17:06.596Z,23.60
2022-08-31T13:19:37.350Z,23.30
2022-08-31T13:22:08.892Z,23.20
2022-08-31T13:24:42.208Z,23.20
2022-08-31T13:27:19.955Z,23.30
2022-08-31T13:29:51.542Z,23.10
2022-08-31T13:32:33.538Z,23.10
2022-08-31T13:35:04.728Z,23.00
2022-08-31T13:37:37.972Z,22.80
2022-08-31T13:40:09.698Z,22.90
2022-08-31T13:42:42.901Z,23.00
2022-08-31T13:45:36.108Z,23.10
2022-08-31T13:48:10.431Z,23.30
2022-08-31T13:50:52.351Z,23.30
2022-08-31T13:53:40.773Z,23.30
2022-08-31T13:56:52.079Z,23.00
2022-08-31T13:59:29.170Z,22.90
2022-08-31T14:02:01.632Z,22.80
2022-08-31T14:04:48.476Z,22.70
2022-08-31T14:07:21.431Z,22.80
2022-08-31T14:09:52.936Z,22.80
2022-08-31T14:12:36.401Z,22.90
2022-08-31T14:15:27.295Z,22.80
2022-08-31T14:21:19.080Z,23.10
2022-08-31T14:23:40.760Z,23.30
2022-08-31T14:26:12.238Z,23.40
2022-08-31T14:28:45.391Z,23.50
2022-08-31T14:31:23.225Z,23.60
2022-08-31T14:34:08.064Z,23.40
2022-08-31T14:36:43.709Z,23.20
2022-08-31T14:39:12.758Z,23.00
2022-08-31T14:41:41.459Z,22.80
2022-08-31T14:44:10.503Z,22.50
2022-08-31T14:46:41.868Z,22.30
2022-08-31T14:49:12.065Z,22.20
2022-08-31T14:51:42.086Z,22.10
2022-08-31T14:54:17.099Z,22.00
2022-08-31T14:56:50.359Z,21.80
2022-08-31T14:59:22.005Z,21.60
2022-08-31T15:01:51.144Z,21.40
2022-08-31T15:04:22.411Z,21.40
2022-08-31T15:06:58.261Z,21.40
2022-08-31T15:09:27.084Z,21.30
2022-08-31T15:12:00.324Z,21.30
2022-08-31T15:14:30.825Z,21.20
2022-08-31T15:17:03.280Z,21.20
2022-08-31T15:19:34.473Z,21.10
2022-08-31T15:22:09.387Z,21.20
2022-08-31T15:24:40.574Z,21.30
2022-08-31T15:27:12.822Z,21.40
2022-08-31T15:29:42.198Z,21.40
2022-08-31T15:32:11.368Z,21.40
2022-08-31T15:34:42.780Z,21.40
2022-08-31T15:37:11.552Z,21.40
2022-08-31T15:39:48.872Z,21.40
2022-08-31T15:42:20.832Z,21.30
2022-08-31T15:44:56.131Z,21.30
2022-08-31T15:47:44.081Z,21.20
2022-08-31T15:50:19.403Z,21.10
2022-08-31T15:52:51.916Z,21.10
2022-08-31T15:55:26.531Z,21.10
2022-08-31T15:57:59.312Z,21.10
2022-08-31T16:00:32.535Z,21.10
2022-08-31T16:03:02.189Z,21.10
2022-08-31T16:05:39.296Z,21.20
2022-08-31T16:08:10.991Z,21.40
2022-08-31T16:10:43.735Z,21.60
2022-08-31T16:13:13.182Z,21.70
2022-08-31T16:15:42.083Z,21.80
2022-08-31T16:18:11.298Z,21.80
2022-08-31T16:20:44.922Z,21.80
2022-08-31T16:23:14.164Z,21.80
2022-08-31T16:25:48.098Z,21.70
2022-08-31T16:28:20.798Z,21.60
2022-08-31T16:30:51.807Z,21.50
2022-08-31T16:33:21.087Z,21.40
2022-08-31T16:35:51.504Z,21.30
2022-08-31T16:38:20.906Z,21.10
2022-08-31T16:40:49.930Z,21.00
2022-08-31T16:43:18.782Z,20.90
2022-08-31T16:45:47.715Z,20.80
2022-08-31T16:48:33.844Z,20.70
2022-08-31T16:51:04.108Z,20.60
2022-08-31T16:53:33.186Z,20.50
2022-08-31T16:56:04.825Z,20.30
2022-08-31T16:58:51.188Z,20.20
2022-08-31T17:01:23.191Z,20.10
2022-08-31T17:03:55.897Z,20.00
2022-08-31T17:06:27.780Z,20.00
2022-08-31T17:08:58.299Z,19.90
2022-08-31T17:11:31.392Z,20.00
2022-08-31T17:14:02.786Z,19.90
2022-08-31T17:16:34.844Z,19.90
2022-08-31T17:19:06.499Z,19.90
2022-08-31T17:21:38.323Z,19.90
2022-08-31T17:24:14.906Z,19.70
2022-08-31T17:26:44.340Z,19.60
2022-08-31T17:29:13.167Z,19.60
2022-08-31T17:31:46.429Z,19.50
2022-08-31T17:34:17.436Z,19.30
2022-08-31T17:36:49.519Z,19.10
2022-08-31T17:39:20.955Z,18.90
2022-08-31T17:41:50.647Z,18.80
2022-08-31T17:44:26.410Z,18.60
2022-08-31T17:46:55.259Z,18.50
2022-08-31T17:49:26.121Z,18.40
2022-08-31T17:51:57.925Z,18.30
2022-08-31T17:54:32.689Z,18.20
2022-08-31T17:57:03.410Z,18.20
2022-08-31T17:59:34.358Z,18.10
2022-08-31T18:02:06.655Z,17.90
2022-08-31T18:04:36.104Z,17.70
2022-08-31T18:07:07.820Z,17.70
2022-08-31T18:09:40.042Z,17.60
2022-08-31T18:12:10.029Z,17.60
2022-08-31T18:14:41.559Z,17.40
2022-08-31T18:17:12.587Z,17.30
2022-08-31T18:19:41.719Z,17.10
2022-08-31T18:22:14.291Z,17.00
2022-08-31T18:24:43.743Z,17.00
2022-08-31T18:27:15.354Z,17.10
2022-08-31T18:29:45.216Z,17.10
2022-08-31T18:32:14.748Z,17.10
2022-08-31T18:34:47.357Z,17.00
2022-08-31T18:37:25.652Z,17.00
2022-08-31T18:40:20.175Z,16.80
2022-08-31T18:43:06.631Z,16.60
2022-08-31T18:45:39.105Z,16.60
2022-08-31T18:48:24.447Z,16.60
2022-08-31T18:50:55.250Z,16.50
2022-08-31T18:53:27.503Z,16.40
2022-08-31T18:55:59.402Z,16.40
2022-08-31T18:58:28.869Z,16.20
2022-08-31T19:00:59.104Z,16.20
2022-08-31T19:03:29.388Z,16.20
2022-08-31T19:05:58.810Z,16.10
2022-08-31T19:08:29.419Z,15.90
2022-08-31T19:10:58.981Z,15.90
2022-08-31T19:13:31.553Z,15.80
2022-08-31T19:16:07.906Z,15.80
2022-08-31T19:18:44.810Z,15.80
2022-08-31T19:21:19.829Z,15.60
2022-08-31T19:23:51.514Z,15.50
2022-08-31T19:26:22.868Z,15.50
2022-08-31T19:28:51.743Z,15.60
2022-08-31T19:31:21.235Z,15.60
2022-08-31T19:33:56.456Z,15.70
2022-08-31T19:36:27.104Z,15.70
2022-08-31T19:38:57.587Z,15.50
2022-08-31T19:41:27.786Z,15.60
2022-08-31T19:44:07.782Z,15.70
2022-08-31T19:46:38.817Z,15.60
2022-08-31T19:49:11.064Z,15.40
2022-08-31T19:51:42.306Z,15.40
2022-08-31T19:54:12.939Z,15.30
2022-08-31T19:56:43.752Z,15.30
2022-08-31T19:59:18.250Z,15.30
2022-08-31T20:01:48.503Z,15.20
2022-08-31T20:04:19.131Z,15.00
2022-08-31T20:06:49.386Z,14.90
2022-08-31T20:09:24.244Z,14.90
2022-08-31T20:11:54.636Z,15.00
2022-08-31T20:14:23.927Z,15.10
2022-08-31T20:16:53.207Z,15.20
2022-08-31T20:19:25.068Z,15.20
2022-08-31T20:21:55.199Z,15.10
2022-08-31T20:24:27.612Z,14.90
2022-08-31T20:27:01.748Z,14.90
2022-08-31T20:29:38.964Z,14.90
2022-08-31T20:32:08.220Z,15.00
2022-08-31T20:34:38.287Z,15.00
2022-08-31T20:37:07.509Z,14.90
2022-08-31T20:39:39.345Z,14.70
2022-08-31T20:42:08.325Z,14.50
2022-08-31T20:44:38.778Z,14.40
2022-08-31T20:47:27.197Z,14.30
2022-08-31T20:49:58.881Z,14.30
2022-08-31T20:52:30.334Z,14.10
2022-08-31T20:55:02.835Z,14.10
2022-08-31T20:57:33.422Z,14.10
2022-08-31T21:00:04.081Z,14.10
2022-08-31T21:02:34.501Z,14.10
2022-08-31T21:05:27.102Z,14.10
2022-08-31T21:07:57.546Z,14.00
2022-08-31T21:10:36.633Z,14.00
2022-08-31T21:13:09.811Z,13.90
2022-08-31T21:15:43.119Z,13.90
2022-08-31T21:18:12.735Z,13.90
2022-08-31T21:20:41.567Z,13.80
2022-08-31T21:23:10.590Z,13.80
2022-08-31T21:25:45.869Z,13.80
2022-08-31T21:28:17.415Z,13.70
2022-08-31T21:30:49.199Z,13.70
2022-08-31T21:33:18.373Z,13.50
2022-08-31T21:35:47.747Z,13.50
2022-08-31T21:38:18.143Z,13.50
2022-08-31T21:40:52.574Z,13.50
2022-08-31T21:43:21.462Z,13.50
2022-08-31T21:46:00.689Z,13.60
2022-08-31T21:48:31.038Z,13.70
2022-08-31T21:51:09.870Z,13.90
2022-08-31T21:53:38.869Z,14.10
2022-08-31T21:56:09.763Z,14.30
2022-08-31T21:58:38.685Z,14.30
2022-08-31T22:01:13.183Z,14.30
2022-08-31T22:03:42.249Z,14.20
2022-08-31T22:06:12.569Z,13.90
2022-08-31T22:08:42.612Z,13.70
2022-08-31T22:11:14.824Z,13.50
2022-08-31T22:13:43.996Z,13.50
2022-08-31T22:16:18.882Z,13.40
2022-08-31T22:19:01.418Z,13.40
2022-08-31T22:21:34.197Z,13.30
2022-08-31T22:24:05.725Z,13.30
2022-08-31T22:26:39.011Z,13.30
2022-08-31T22:29:10.170Z,13.30
2022-08-31T22:31:40.808Z,13.10
2022-08-31T22:34:11.808Z,13.20
2022-08-31T22:36:40.688Z,13.10
2022-08-31T22:39:14.309Z,13.10
2022-08-31T22:41:45.181Z,13.10
2022-08-31T22:44:16.273Z,13.00
2022-08-31T22:46:46.234Z,13.00
2022-08-31T22:49:15.737Z,12.90
2022-08-31T22:51:48.364Z,12.80
2022-08-31T22:54:19.748Z,12.70
2022-08-31T22:56:50.840Z,12.70
2022-08-31T22:59:26.174Z,12.60
2022-08-31T23:01:57.078Z,12.60
2022-08-31T23:04:28.260Z,12.50
2022-08-31T23:06:59.264Z,12.50
2022-08-31T23:09:31.076Z,12.40
2022-08-31T23:12:03.254Z,12.40
2022-08-31T23:14:33.478Z,12.40
2022-08-31T23:17:05.521Z,12.30
2022-08-31T23:19:38.023Z,12.30
2022-08-31T23:22:09.407Z,12.30
2022-08-31T23:24:41.249Z,12.20
2022-08-31T23:27:12.664Z,12.20
2022-08-31T23:29:45.791Z,12.20
2022-08-31T23:32:16.196Z,12.10
2022-08-31T23:34:46.588Z,12.10
2022-08-31T23:37:17.443Z,12.10
2022-08-31T23:39:47.808Z,12.00
2022-08-31T23:42:18.764Z,12.10
2022-08-31T23:44:48.624Z,12.10
2022-08-31T23:47:20.330Z,12.00
2022-08-31T23:49:51.317Z,12.00
2022-08-31T23:52:22.166Z,11.90
2022-08-31T23:54:53.553Z,11.80
2022-08-31T23:57:32.489Z,11.80
